Time,TemperatureF,DewpointF,PressureIn,WindDirection,WindDirectionDegrees,WindSpeedMPH,WindSpeedGustMPH,Humidity,HourlyPrecipIn,Conditions,Clouds,dailyrainin,SoftwareType,DateUTC
2013-03-03 00:00:00,45.3,36.5,30.05,WNW,291,0.0,3.4,71,0.00,,,0.00,VWS V14.01,2013-03-03 05:00:00,
2013-03-03 00:05:00,45.1,36.2,30.05,WNW,284,0.0,4.3,71,0.00,,,0.00,VWS V14.01,2013-03-03 05:05:00,
2013-03-03 00:10:00,45.0,36.4,30.05,WNW,284,0.0,4.3,72,0.00,,,0.00,VWS V14.01,2013-03-03 05:10:00,
2013-03-03 00:15:00,44.8,36.4,30.05,WNW,284,0.0,4.3,72,0.00,,,0.00,VWS V14.01,2013-03-03 05:15:00,
2013-03-03 00:20:00,44.7,36.1,30.05,North,7,0.0,4.3,72,0.00,,,0.00,VWS V14.01,2013-03-03 05:20:00,
2013-03-03 00:25:00,44.6,36.1,30.05,NW,322,4.2,4.3,72,0.00,,,0.00,VWS V14.01,2013-03-03 05:25:00,
2013-03-03 00:30:00,44.5,36.0,30.05,NW,322,0.0,4.3,72,0.00,,,0.00,VWS V14.01,2013-03-03 05:30:00,
2013-03-03 00:35:00,44.5,36.0,30.05,NW,322,0.0,4.2,72,0.00,,,0.00,VWS V14.01,2013-03-03 05:35:00,
2013-03-03 00:40:00,44.2,35.7,30.05,NW,322,0.0,4.2,72,0.00,,,0.00,VWS V14.01,2013-03-03 05:40:00,
2013-03-03 00:45:00,44.1,35.7,30.05,NW,322,0.0,4.2,72,0.00,,,0.00,VWS V14.01,2013-03-03 05:45:00,
2013-03-03 00:50:00,44.1,35.7,30.05,NW,322,0.0,4.2,72,0.00,,,0.00,VWS V14.01,2013-03-03 05:50:00,
2013-03-03 00:55:00,44.0,35.9,30.05,NW,322,0.0,0.0,73,0.00,,,0.00,VWS V14.01,2013-03-03 05:55:00,
2013-03-03 01:00:00,43.9,35.8,30.05,NW,322,0.0,0.0,73,0.00,,,0.00,VWS V14.01,2013-03-03 06:00:00,
2013-03-03 01:05:00,43.9,36.2,30.06,NW,322,0.0,0.0,74,0.00,,,0.00,VWS V14.01,2013-03-03 06:05:00,
2013-03-03 09:46:00,46.7,35.6,30.10,NNE,25,0.0,3.4,65,0.00,,,0.00,VWS V14.01,2013-03-03 14:46:00,
2013-03-03 09:51:00,47.2,36.0,30.10,NNW,329,3.2,7.5,65,0.00,,,0.00,VWS V14.01,2013-03-03 14:51:00,
2013-03-03 09:56:00,47.5,36.1,30.09,WSW,252,0.0,6.7,64,0.00,,,0.00,VWS V14.01,2013-03-03 14:56:00,
2013-03-03 10:01:00,48.0,36.3,30.10,West,276,0.0,6.1,64,0.00,,,0.00,VWS V14.01,2013-03-03 15:01:00,
2013-03-03 10:06:00,48.6,36.4,30.09,SW,226,0.0,12.9,62,0.00,,,0.00,VWS V14.01,2013-03-03 15:06:00,
2013-03-03 10:11:00,48.9,36.1,30.09,NE,52,0.0,9.8,61,0.00,,,0.00,VWS V14.01,2013-03-03 15:11:00,
2013-03-03 10:16:00,48.9,36.1,30.09,North,359,6.9,11.9,61,0.00,,,0.00,VWS V14.01,2013-03-03 15:16:00,
2013-03-03 10:21:00,48.8,36.0,30.09,NE,34,0.0,7.1,61,0.00,,,0.00,VWS V14.01,2013-03-03 15:21:00,
2013-03-03 10:26:00,49.2,36.7,30.10,NW,322,3.4,9.3,62,0.00,,,0.00,VWS V14.01,2013-03-03 15:26:00,
2013-03-03 10:31:00,49.4,36.7,30.10,NW,316,3.5,7.3,61,0.00,,,0.00,VWS V14.01,2013-03-03 15:31:00,
2013-03-03 10:36:00,49.3,36.1,30.10,ENE,62,2.7,10.0,60,0.00,,,0.00,VWS V14.01,2013-03-03 15:36:00,
2013-03-03 10:40:00,49.3,36.8,30.09,NW,316,4.8,9.8,62,0.00,,,0.00,VWS V14.01,2013-03-03 15:40:00,
2013-03-03 10:45:00,49.3,36.8,30.10,West,277,3.3,12.8,62,0.00,,,0.00,VWS V14.01,2013-03-03 15:45:00,
2013-03-03 10:50:00,49.5,36.7,30.10,West,277,2.0,10.6,61,0.00,,,0.00,VWS V14.01,2013-03-03 15:50:00,
2013-03-03 10:55:00,49.7,36.9,30.10,NNW,347,8.0,8.6,61,0.00,,,0.00,VWS V14.01,2013-03-03 15:55:00,
2013-03-03 11:00:00,50.1,37.2,30.10,West,271,0.0,6.8,61,0.00,,,0.00,VWS V14.01,2013-03-03 16:00:00,
2013-03-03 11:05:00,50.8,37.5,30.09,NNW,328,6.7,8.7,60,0.00,,,0.00,VWS V14.01,2013-03-03 16:05:00,
2013-03-03 11:10:00,51.0,36.5,30.09,NNW,338,8.6,13.0,57,0.00,,,0.00,VWS V14.01,2013-03-03 16:10:00,
2013-03-03 11:15:00,51.4,37.5,30.09,WNW,297,0.0,9.6,59,0.00,,,0.00,VWS V14.01,2013-03-03 16:15:00,
2013-03-03 11:20:00,51.7,37.0,30.09,NW,314,4.7,14.9,57,0.00,,,0.00,VWS V14.01,2013-03-03 16:20:00,
2013-03-03 11:25:00,52.0,37.7,30.09,NNW,335,6.2,14.8,58,0.00,,,0.00,VWS V14.01,2013-03-03 16:25:00,
2013-03-03 11:30:00,52.3,37.2,30.09,West,273,0.0,6.6,56,0.00,,,0.00,VWS V14.01,2013-03-03 16:30:00,
2013-03-03 11:35:00,52.8,37.7,30.08,North,359,2.1,11.1,56,0.00,,,0.00,VWS V14.01,2013-03-03 16:35:00,
2013-03-03 11:40:00,52.9,37.1,30.08,WSW,245,8.8,15.3,55,0.00,,,0.00,VWS V14.01,2013-03-03 16:40:00,
2013-03-03 11:45:00,52.8,37.2,30.08,NW,321,3.4,11.7,55,0.00,,,0.00,VWS V14.01,2013-03-03 16:45:00,
2013-03-03 11:50:00,53.0,38.3,30.08,North,350,7.2,7.3,57,0.00,,,0.00,VWS V14.01,2013-03-03 16:50:00,
2013-03-03 11:55:00,53.9,38.3,30.08,West,267,7.0,9.4,55,0.00,,,0.00,VWS V14.01,2013-03-03 16:55:00,
2013-03-03 12:00:00,54.2,38.0,30.08,WSW,250,3.5,17.5,54,0.00,,,0.00,VWS V14.01,2013-03-03 17:00:00,
2013-03-03 12:05:00,54.0,37.9,30.07,WNW,295,5.7,16.0,54,0.00,,,0.00,VWS V14.01,2013-03-03 17:05:00,
2013-03-03 12:10:00,53.5,38.0,30.08,West,260,4.3,9.5,56,0.00,,,0.00,VWS V14.01,2013-03-03 17:10:00,
2013-03-03 12:15:00,53.6,37.8,30.08,NNE,18,0.0,13.4,55,0.00,,,0.00,VWS V14.01,2013-03-03 17:15:00,
2013-03-03 12:20:00,53.0,37.7,30.08,North,7,6.7,14.9,56,0.00,,,0.00,VWS V14.01,2013-03-03 17:20:00,
2013-03-03 12:25:00,53.0,37.4,30.08,NNW,328,5.1,12.7,55,0.00,,,0.00,VWS V14.01,2013-03-03 17:25:00,
2013-03-03 12:30:00,53.1,37.7,30.07,WNW,288,0.0,6.6,56,0.00,,,0.00,VWS V14.01,2013-03-03 17:30:00,
2013-03-03 12:35:00,53.8,37.8,30.07,SW,236,5.2,10.0,55,0.00,,,0.00,VWS V14.01,2013-03-03 17:35:00,
2013-03-03 12:40:00,53.8,37.7,30.07,NNW,336,9.5,14.9,54,0.00,,,0.00,VWS V14.01,2013-03-03 17:40:00,
2013-03-03 12:45:00,53.9,37.6,30.06,NW,304,7.0,14.3,54,0.00,,,0.00,VWS V14.01,2013-03-03 17:45:00,
2013-03-03 12:50:00,54.0,37.9,30.06,WSW,256,4.2,14.0,54,0.00,,,0.00,VWS V14.01,2013-03-03 17:50:00,
2013-03-03 12:55:00,53.9,37.4,30.06,West,278,0.0,11.9,54,0.00,,,0.00,VWS V14.01,2013-03-03 17:55:00,
2013-03-03 13:00:00,53.6,37.2,30.05,West,259,3.2,15.9,54,0.00,,,0.00,VWS V14.01,2013-03-03 18:00:00,
2013-03-03 13:05:00,54.1,37.4,30.05,WSW,252,0.0,15.0,53,0.00,,,0.00,VWS V14.01,2013-03-03 18:05:00,
2013-03-03 13:10:00,54.4,37.7,30.05,North,359,5.3,10.3,53,0.00,,,0.00,VWS V14.01,2013-03-03 18:10:00,
2013-03-03 13:15:00,55.1,38.4,30.04,NW,321,0.0,7.0,53,0.00,,,0.00,VWS V14.01,2013-03-03 18:15:00,
2013-03-03 13:20:00,55.4,38.2,30.05,NNW,338,11.6,17.7,52,0.00,,,0.00,VWS V14.01,2013-03-03 18:20:00,
2013-03-03 13:25:00,54.9,37.6,30.04,NNW,332,7.1,7.1,52,0.00,,,0.00,VWS V14.01,2013-03-03 18:25:00,
2013-03-03 13:30:00,53.9,37.0,30.04,North,359,0.0,9.4,53,0.00,,,0.00,VWS V14.01,2013-03-03 18:30:00,
2013-03-03 13:35:00,54.1,37.8,30.04,NNE,13,0.0,11.4,54,0.00,,,0.00,VWS V14.01,2013-03-03 18:35:00,
2013-03-03 13:40:00,55.0,38.4,30.04,NNE,20,3.5,5.8,54,0.00,,,0.00,VWS V14.01,2013-03-03 18:40:00,
2013-03-03 13:45:00,54.4,37.5,30.04,North,359,3.5,12.3,53,0.00,,,0.00,VWS V14.01,2013-03-03 18:45:00,
2013-03-03 13:50:00,53.6,37.2,30.04,WNW,284,11.1,11.1,54,0.00,,,0.00,VWS V14.01,2013-03-03 18:50:00,
2013-03-03 13:55:00,53.9,37.6,30.04,West,266,7.3,8.4,54,0.00,,,0.00,VWS V14.01,2013-03-03 18:55:00,
2013-03-03 14:00:00,54.3,37.4,30.03,WNW,300,12.7,13.1,53,0.00,,,0.00,VWS V14.01,2013-03-03 19:00:00,
2013-03-03 14:05:00,54.5,37.6,30.03,WNW,295,0.0,10.4,53,0.00,,,0.00,VWS V14.01,2013-03-03 19:05:00,
2013-03-03 14:10:00,55.2,38.2,30.03,NW,311,0.0,4.7,53,0.00,,,0.00,VWS V14.01,2013-03-03 19:10:00,
2013-03-03 14:15:00,55.2,38.0,30.03,North,3,7.1,16.4,52,0.00,,,0.00,VWS V14.01,2013-03-03 19:15:00,
2013-03-03 14:20:00,55.1,38.0,30.03,North,0,0.0,10.9,52,0.00,,,0.00,VWS V14.01,2013-03-03 19:20:00,
2013-03-03 14:25:00,54.4,37.5,30.03,West,267,5.0,5.3,53,0.00,,,0.00,VWS V14.01,2013-03-03 19:25:00,
2013-03-03 14:30:00,54.5,37.6,30.03,North,357,5.0,12.1,53,0.00,,,0.00,VWS V14.01,2013-03-03 19:30:00,
2013-03-03 14:35:00,54.9,37.5,30.03,SSW,202,0.0,9.9,52,0.00,,,0.00,VWS V14.01,2013-03-03 19:35:00,
2013-03-03 14:40:00,55.5,37.7,30.03,West,277,12.8,14.0,51,0.00,,,0.00,VWS V14.01,2013-03-03 19:40:00,
2013-03-03 14:45:00,55.5,37.9,30.03,SE,146,0.0,6.9,51,0.00,,,0.00,VWS V14.01,2013-03-03 19:45:00,
2013-03-03 14:50:00,55.7,37.6,30.03,West,267,6.8,12.7,50,0.00,,,0.00,VWS V14.01,2013-03-03 19:50:00,
2013-03-03 14:55:00,55.5,38.1,30.03,North,349,9.8,15.1,52,0.00,,,0.00,VWS V14.01,2013-03-03 19:55:00,
2013-03-03 15:00:00,55.3,38.0,30.03,West,281,12.6,12.6,52,0.00,,,0.00,VWS V14.01,2013-03-03 20:00:00,
2013-03-03 15:05:00,55.0,37.9,30.04,WNW,298,5.0,14.7,52,0.00,,,0.00,VWS V14.01,2013-03-03 20:05:00,
2013-03-03 15:10:00,54.7,37.4,30.03,WNW,301,6.3,15.5,52,0.00,,,0.00,VWS V14.01,2013-03-03 20:10:00,
2013-03-03 15:15:00,54.5,37.7,30.04,NW,305,7.0,7.0,53,0.00,,,0.00,VWS V14.01,2013-03-03 20:15:00,
2013-03-03 15:20:00,54.0,37.3,30.03,West,281,4.5,8.8,53,0.00,,,0.00,VWS V14.01,2013-03-03 20:20:00,
2013-03-03 15:25:00,53.5,37.4,30.03,NW,304,9.8,11.3,54,0.00,,,0.00,VWS V14.01,2013-03-03 20:25:00,
2013-03-03 15:30:00,53.2,37.3,30.03,North,359,0.0,10.6,55,0.00,,,0.00,VWS V14.01,2013-03-03 20:30:00,
2013-03-03 15:35:00,53.1,37.7,30.04,NNW,333,4.2,9.6,56,0.00,,,0.00,VWS V14.01,2013-03-03 20:35:00,
2013-03-03 15:40:00,53.1,37.2,30.04,SSW,208,3.4,13.5,55,0.00,,,0.00,VWS V14.01,2013-03-03 20:40:00,
2013-03-03 15:45:00,53.2,37.3,30.04,North,3,6.6,11.4,55,0.00,,,0.00,VWS V14.01,2013-03-03 20:45:00,
2013-03-03 15:50:00,53.3,37.7,30.03,WSW,249,6.3,9.9,55,0.00,,,0.00,VWS V14.01,2013-03-03 20:50:00,
2013-03-03 15:55:00,53.0,37.7,30.03,NW,307,6.2,12.1,56,0.00,,,0.00,VWS V14.01,2013-03-03 20:55:00,
2013-03-03 16:00:00,53.0,37.9,30.03,South,173,3.4,9.1,56,0.00,,,0.00,VWS V14.01,2013-03-03 21:00:00,
2013-03-03 16:05:00,53.0,37.7,30.04,WNW,285,6.1,7.5,56,0.00,,,0.00,VWS V14.01,2013-03-03 21:05:00,
2013-03-03 16:10:00,52.7,37.4,30.04,NNE,15,3.4,9.9,56,0.00,,,0.00,VWS V14.01,2013-03-03 21:10:00,
2013-03-03 16:15:00,52.7,37.7,30.04,West,264,0.0,6.0,56,0.00,,,0.00,VWS V14.01,2013-03-03 21:15:00,
2013-03-03 16:20:00,52.2,37.5,30.04,West,267,8.4,10.0,57,0.00,,,0.00,VWS V14.01,2013-03-03 21:20:00,
2013-03-03 16:25:00,52.1,36.8,30.04,NNE,18,7.0,13.2,56,0.00,,,0.00,VWS V14.01,2013-03-03 21:25:00,
2013-03-03 16:30:00,52.5,36.7,30.03,NNE,20,0.0,11.2,55,0.00,,,0.00,VWS V14.01,2013-03-03 21:30:00,
2013-03-03 16:35:00,52.8,36.9,30.04,WNW,291,6.6,9.3,55,0.00,,,0.00,VWS V14.01,2013-03-03 21:35:00,
2013-03-03 16:40:00,52.8,36.7,30.03,NNE,17,0.0,6.6,54,0.00,,,0.00,VWS V14.01,2013-03-03 21:40:00,
2013-03-03 16:45:00,52.4,36.9,30.03,WNW,294,5.8,9.4,55,0.00,,,0.00,VWS V14.01,2013-03-03 21:45:00,
2013-03-03 16:50:00,52.1,36.8,30.03,NNE,22,0.0,0.0,56,0.00,,,0.00,VWS V14.01,2013-03-03 21:50:00,
2013-03-03 16:55:00,52.2,37.0,30.03,WNW,291,5.3,11.2,56,0.00,,,0.00,VWS V14.01,2013-03-03 21:55:00,
2013-03-03 17:00:00,52.4,36.9,30.03,WSW,245,4.7,10.6,55,0.00,,,0.00,VWS V14.01,2013-03-03 22:00:00,
2013-03-03 17:05:00,52.3,36.9,30.03,NW,308,7.0,10.5,56,0.00,,,0.00,VWS V14.01,2013-03-03 22:05:00,
2013-03-03 17:10:00,52.3,37.1,30.04,WNW,291,0.0,6.3,56,0.00,,,0.00,VWS V14.01,2013-03-03 22:10:00,
2013-03-03 17:15:00,52.1,36.9,30.04,NNW,333,0.0,0.0,56,0.00,,,0.00,VWS V14.01,2013-03-03 22:15:00,
2013-03-03 17:20:00,52.0,37.1,30.04,North,359,0.0,5.5,57,0.00,,,0.00,VWS V14.01,2013-03-03 22:20:00,
2013-03-03 17:25:00,52.0,37.2,30.04,WNW,302,3.3,6.8,57,0.00,,,0.00,VWS V14.01,2013-03-03 22:25:00,
2013-03-03 17:30:00,51.9,37.1,30.04,South,191,0.0,14.0,57,0.00,,,0.00,VWS V14.01,2013-03-03 22:30:00,
2013-03-03 17:35:00,51.6,37.1,30.05,West,266,3.2,10.8,58,0.00,,,0.00,VWS V14.01,2013-03-03 22:35:00,
2013-03-03 17:40:00,51.2,37.1,30.05,WNW,294,0.0,4.6,58,0.00,,,0.00,VWS V14.01,2013-03-03 22:40:00,
2013-03-03 17:44:00,51.1,37.1,30.05,WNW,287,4.2,11.3,59,0.00,,,0.00,VWS V14.01,2013-03-03 22:44:00,
2013-03-03 17:49:00,50.9,37.3,30.05,NW,314,5.2,9.4,59,0.00,,,0.00,VWS V14.01,2013-03-03 22:49:00,
2013-03-03 17:54:00,50.7,36.8,30.05,WNW,283,0.0,7.5,59,0.00,,,0.00,VWS V14.01,2013-03-03 22:54:00,
2013-03-03 17:59:00,50.7,37.1,30.06,WNW,300,6.3,8.8,60,0.00,,,0.00,VWS V14.01,2013-03-03 22:59:00,
2013-03-03 18:04:00,50.5,37.1,30.06,North,359,0.0,5.4,60,0.00,,,0.00,VWS V14.01,2013-03-03 23:04:00,
2013-03-03 18:09:00,50.4,36.9,30.06,NNW,330,0.0,6.8,60,0.00,,,0.00,VWS V14.01,2013-03-03 23:09:00,
2013-03-03 18:14:00,50.3,37.0,30.06,NNW,328,0.0,0.0,60,0.00,,,0.00,VWS V14.01,2013-03-03 23:14:00,
2013-03-03 18:19:00,50.1,37.0,30.06,NNW,328,0.0,0.0,60,0.00,,,0.00,VWS V14.01,2013-03-03 23:19:00,
2013-03-03 18:24:00,49.9,36.6,30.07,West,259,3.1,7.8,60,0.00,,,0.00,VWS V14.01,2013-03-03 23:24:00,
2013-03-03 18:29:00,49.7,36.7,30.07,WNW,283,4.8,11.4,61,0.00,,,0.00,VWS V14.01,2013-03-03 23:29:00,
2013-03-03 18:34:00,49.6,36.7,30.07,West,271,0.0,8.0,61,0.00,,,0.00,VWS V14.01,2013-03-03 23:34:00,
2013-03-03 18:39:00,49.5,37.0,30.08,NW,308,0.0,0.0,62,0.00,,,0.00,VWS V14.01,2013-03-03 23:39:00,
2013-03-03 18:44:00,49.4,36.8,30.08,NW,325,0.0,0.0,62,0.00,,,0.00,VWS V14.01,2013-03-03 23:44:00,
2013-03-03 18:49:00,49.3,36.8,30.08,NW,307,0.0,0.0,62,0.00,,,0.00,VWS V14.01,2013-03-03 23:49:00,
2013-03-03 18:54:00,49.2,36.9,30.08,NW,307,0.0,0.0,62,0.00,,,0.00,VWS V14.01,2013-03-03 23:54:00,
2013-03-03 18:59:00,49.1,36.9,30.09,West,262,0.0,6.2,63,0.00,,,0.00,VWS V14.01,2013-03-03 23:59:00,
2013-03-03 19:04:00,48.8,36.9,30.09,WSW,243,0.0,8.6,63,0.00,,,0.00,VWS V14.01,2013-03-04 00:04:00,
2013-03-03 19:09:00,48.7,36.8,30.09,West,270,0.0,5.0,63,0.00,,,0.00,VWS V14.01,2013-03-04 00:09:00,
2013-03-03 19:14:00,48.6,37.0,30.10,NW,308,4.8,5.3,64,0.00,,,0.00,VWS V14.01,2013-03-04 00:14:00,
2013-03-03 19:19:00,48.5,37.1,30.10,WSW,250,0.0,6.0,65,0.00,,,0.00,VWS V14.01,2013-03-04 00:19:00,
2013-03-03 19:24:00,48.4,37.2,30.10,WNW,291,0.0,5.0,65,0.00,,,0.00,VWS V14.01,2013-03-04 00:24:00,
2013-03-03 19:29:00,48.3,37.2,30.11,NW,309,0.0,6.7,65,0.00,,,0.00,VWS V14.01,2013-03-04 00:29:00,
2013-03-03 19:34:00,48.1,37.1,30.11,West,260,0.0,0.0,66,0.00,,,0.00,VWS V14.01,2013-03-04 00:34:00,
2013-03-03 19:39:00,47.8,37.2,30.11,NNW,333,0.0,4.7,66,0.00,,,0.00,VWS V14.01,2013-03-04 00:39:00,
2013-03-03 19:44:00,47.7,37.1,30.11,NNW,333,0.0,3.0,67,0.00,,,0.00,VWS V14.01,2013-03-04 00:44:00,
2013-03-03 19:49:00,47.6,37.0,30.11,West,269,5.6,5.6,66,0.00,,,0.00,VWS V14.01,2013-03-04 00:49:00,
2013-03-03 19:54:00,47.5,37.0,30.11,WSW,240,2.6,2.6,67,0.00,,,0.00,VWS V14.01,2013-03-04 00:54:00,
2013-03-03 19:59:00,47.4,36.9,30.11,WSW,240,0.0,3.0,67,0.00,,,0.00,VWS V14.01,2013-03-04 00:59:00,
2013-03-03 20:04:00,47.3,36.9,30.12,West,270,0.0,0.0,67,0.00,,,0.00,VWS V14.01,2013-03-04 01:04:00,
2013-03-03 20:09:00,47.2,36.9,30.12,West,278,0.0,0.0,67,0.00,,,0.00,VWS V14.01,2013-03-04 01:09:00,
2013-03-03 20:14:00,47.1,37.0,30.12,WSW,249,0.0,0.0,68,0.00,,,0.00,VWS V14.01,2013-03-04 01:14:00,
2013-03-03 20:19:00,47.0,36.7,30.13,WSW,250,0.0,4.8,67,0.00,,,0.00,VWS V14.01,2013-03-04 01:19:00,
2013-03-03 20:24:00,46.8,36.7,30.13,WSW,250,0.0,0.0,68,0.00,,,0.00,VWS V14.01,2013-03-04 01:24:00,
2013-03-03 20:29:00,46.7,36.9,30.13,West,263,0.0,2.8,68,0.00,,,0.00,VWS V14.01,2013-03-04 01:29:00,
2013-03-03 20:34:00,46.7,36.9,30.13,WNW,290,0.0,0.0,68,0.00,,,0.00,VWS V14.01,2013-03-04 01:34:00,
2013-03-03 20:39:00,46.4,36.7,30.13,WSW,240,0.0,5.9,69,0.00,,,0.00,VWS V14.01,2013-03-04 01:39:00,
2013-03-03 20:44:00,46.3,36.8,30.14,WNW,292,0.0,0.0,69,0.00,,,0.00,VWS V14.01,2013-03-04 01:44:00,
2013-03-03 20:49:00,46.2,36.8,30.14,NNW,329,0.0,0.0,70,0.00,,,0.00,VWS V14.01,2013-03-04 01:49:00,
2013-03-03 20:54:00,46.1,36.7,30.14,WSW,257,6.3,7.5,70,0.00,,,0.00,VWS V14.01,2013-03-04 01:54:00,
2013-03-03 20:59:00,46.0,36.8,30.14,WSW,242,0.0,0.0,70,0.00,,,0.00,VWS V14.01,2013-03-04 01:59:00,
2013-03-03 21:04:00,45.9,36.8,30.14,WSW,243,0.0,0.0,70,0.00,,,0.00,VWS V14.01,2013-03-04 02:04:00,
2013-03-03 21:09:00,45.7,36.7,30.15,NW,316,0.0,7.2,71,0.00,,,0.00,VWS V14.01,2013-03-04 02:09:00,
2013-03-03 21:14:00,45.6,36.7,30.15,West,269,0.0,0.0,71,0.00,,,0.00,VWS V14.01,2013-03-04 02:14:00,
2013-03-03 21:19:00,45.4,36.7,30.15,WSW,245,0.0,0.0,71,0.00,,,0.00,VWS V14.01,2013-03-04 02:19:00,
2013-03-03 21:24:00,45.3,36.7,30.15,NW,316,2.9,5.2,72,0.00,,,0.00,VWS V14.01,2013-03-04 02:24:00,
2013-03-03 21:29:00,45.3,36.8,30.15,NW,316,0.0,0.0,72,0.00,,,0.00,VWS V14.01,2013-03-04 02:29:00,
2013-03-03 21:34:00,45.2,36.7,30.15,WSW,240,0.0,4.2,72,0.00,,,0.00,VWS V14.01,2013-03-04 02:34:00,
2013-03-03 21:39:00,45.1,36.7,30.16,NW,318,0.0,4.3,72,0.00,,,0.00,VWS V14.01,2013-03-04 02:39:00,
2013-03-03 21:44:00,45.1,36.9,30.16,NW,305,0.0,5.6,73,0.00,,,0.00,VWS V14.01,2013-03-04 02:44:00,
2013-03-03 21:49:00,45.1,36.9,30.16,WNW,300,3.0,6.8,73,0.00,,,0.00,VWS V14.01,2013-03-04 02:49:00,
2013-03-03 21:54:00,45.0,37.0,30.17,WNW,300,0.0,0.0,73,0.00,,,0.00,VWS V14.01,2013-03-04 02:54:00,
2013-03-03 21:59:00,44.8,36.9,30.17,West,276,4.3,5.5,74,0.00,,,0.00,VWS V14.01,2013-03-04 02:59:00,
2013-03-03 22:04:00,44.7,36.9,30.17,WNW,295,0.0,0.0,74,0.00,,,0.00,VWS V14.01,2013-03-04 03:04:00,
2013-03-03 22:09:00,44.6,36.9,30.17,WNW,295,0.0,0.0,74,0.00,,,0.00,VWS V14.01,2013-03-04 03:09:00,
2013-03-03 22:14:00,44.6,36.9,30.17,WNW,295,0.0,0.0,74,0.00,,,0.00,VWS V14.01,2013-03-04 03:14:00,
2013-03-03 22:19:00,44.4,37.0,30.17,WNW,294,0.0,5.1,75,0.00,,,0.00,VWS V14.01,2013-03-04 03:19:00,
2013-03-03 22:24:00,44.3,37.0,30.18,WNW,294,0.0,0.0,75,0.00,,,0.00,VWS V14.01,2013-03-04 03:24:00,
2013-03-03 22:29:00,44.2,36.9,30.18,WNW,292,0.0,0.0,75,0.00,,,0.00,VWS V14.01,2013-03-04 03:29:00,
2013-03-03 22:34:00,44.2,36.9,30.18,West,276,0.0,4.7,75,0.00,,,0.00,VWS V14.01,2013-03-04 03:34:00,
2013-03-03 22:39:00,44.0,36.9,30.18,West,266,0.0,0.0,76,0.00,,,0.00,VWS V14.01,2013-03-04 03:39:00,
2013-03-03 22:44:00,44.0,37.0,30.18,West,267,0.0,4.3,76,0.00,,,0.00,VWS V14.01,2013-03-04 03:44:00,
2013-03-03 22:49:00,43.9,37.0,30.18,West,267,0.0,0.0,77,0.00,,,0.00,VWS V14.01,2013-03-04 03:49:00,
2013-03-03 22:54:00,43.8,36.9,30.18,West,267,0.0,0.0,76,0.00,,,0.00,VWS V14.01,2013-03-04 03:54:00,
2013-03-03 22:59:00,43.7,36.9,30.18,West,267,0.0,0.0,77,0.00,,,0.00,VWS V14.01,2013-03-04 03:59:00,
2013-03-03 23:04:00,43.6,37.0,30.18,West,267,0.0,0.0,77,0.00,,,0.00,VWS V14.01,2013-03-04 04:04:00,
2013-03-03 23:09:00,43.5,36.9,30.18,West,267,0.0,0.0,77,0.00,,,0.00,VWS V14.01,2013-03-04 04:09:00,
2013-03-03 23:14:00,43.5,36.9,30.18,West,267,0.0,0.0,78,0.00,,,0.00,VWS V14.01,2013-03-04 04:14:00,
2013-03-03 23:19:00,43.3,36.6,30.18,NNW,340,0.0,0.0,77,0.00,,,0.00,VWS V14.01,2013-03-04 04:19:00,
2013-03-03 23:24:00,43.3,36.7,30.18,NNW,340,0.0,0.0,77,0.00,,,0.00,VWS V14.01,2013-03-04 04:24:00,
2013-03-03 23:29:00,43.3,36.8,30.18,NNW,340,0.0,0.0,78,0.00,,,0.00,VWS V14.01,2013-03-04 04:29:00,
2013-03-03 23:34:00,43.3,36.8,30.18,NNW,340,0.0,0.0,78,0.00,,,0.00,VWS V14.01,2013-03-04 04:34:00,
2013-03-03 23:39:00,43.1,36.8,30.18,NNW,340,0.0,0.0,78,0.00,,,0.00,VWS V14.01,2013-03-04 04:39:00,
2013-03-03 23:44:00,43.1,36.8,30.19,NNW,340,0.0,0.0,78,0.00,,,0.00,VWS V14.01,2013-03-04 04:44:00,
2013-03-03 23:48:00,43.0,36.8,30.19,NNW,340,0.0,0.0,79,0.00,,,0.00,VWS V14.01,2013-03-04 04:48:00,
2013-03-03 23:53:00,42.9,36.7,30.18,NNW,340,0.0,0.0,78,0.00,,,0.00,VWS V14.01,2013-03-04 04:53:00,
2013-03-03 23:58:00,42.7,36.6,30.19,NNW,340,0.0,0.0,79,0.00,,,0.00,VWS V14.01,2013-03-04 04:58:00,